createdAt,value
2022-10-18T00:02:24.079Z,101212.40
2022-10-18T00:04:57.786Z,101213.00
2022-10-18T00:07:31.711Z,101210.40
2022-10-18T00:10:06.186Z,101210.00
2022-10-18T00:12:40.709Z,101212.40
2022-10-18T00:15:15.540Z,101217.60
2022-10-18T00:17:49.665Z,101210.60
2022-10-18T00:20:23.374Z,101217.40
2022-10-18T00:22:56.975Z,101216.40
2022-10-18T00:25:32.024Z,101217.20
2022-10-18T00:28:05.808Z,101215.60
2022-10-18T00:30:40.120Z,101216.20
2022-10-18T00:33:13.939Z,101212.60
2022-10-18T00:35:47.526Z,101212.60
2022-10-18T00:38:21.447Z,101218.00
2022-10-18T00:40:55.674Z,101217.40
2022-10-18T00:43:29.322Z,101217.40
2022-10-18T00:46:02.958Z,101215.20
2022-10-18T00:48:36.779Z,101215.60
2022-10-18T00:51:12.395Z,101215.80
2022-10-18T00:53:46.274Z,101213.80
2022-10-18T00:56:21.125Z,101214.20
2022-10-18T00:58:56.091Z,101208.60
2022-10-18T01:01:29.948Z,101208.80
2022-10-18T01:04:03.995Z,101205.60
2022-10-18T01:06:51.249Z,101206.00
2022-10-18T01:09:35.339Z,101204.20
2022-10-18T01:12:28.882Z,101202.40
2022-10-18T01:15:12.402Z,101200.20
2022-10-18T01:17:59.093Z,101200.00
2022-10-18T01:21:05.605Z,101200.20
2022-10-18T01:24:12.150Z,101199.80
2022-10-18T01:27:13.645Z,101194.00
2022-10-18T01:30:15.679Z,101193.80
2022-10-18T01:32:55.145Z,101187.40
2022-10-18T01:35:36.361Z,101183.60
2022-10-18T01:38:17.926Z,101184.60
2022-10-18T01:40:54.254Z,101181.00
2022-10-18T01:43:30.876Z,101184.40
2022-10-18T01:46:06.444Z,101173.20
2022-10-18T01:48:40.586Z,101179.00
2022-10-18T01:51:14.957Z,101175.40
2022-10-18T01:53:48.588Z,101173.80
2022-10-18T01:56:32.531Z,101179.00
2022-10-18T01:59:23.963Z,101178.40
2022-10-18T02:02:08.139Z,101179.40
2022-10-18T02:04:52.384Z,101179.60
2022-10-18T02:07:38.153Z,101177.40
2022-10-18T02:10:19.631Z,101175.40
2022-10-18T02:12:56.480Z,101180.80
2022-10-18T02:15:39.070Z,101180.80
2022-10-18T02:18:19.472Z,101178.40
2022-10-18T02:20:54.254Z,101177.80
2022-10-18T02:23:30.221Z,101184.20
2022-10-18T02:26:04.210Z,101176.00
2022-10-18T02:28:37.966Z,101174.40
2022-10-18T02:31:21.927Z,101180.40
2022-10-18T02:34:03.720Z,101183.00
2022-10-18T02:36:44.015Z,101175.80
2022-10-18T02:39:22.446Z,101176.40
2022-10-18T02:41:57.946Z,101179.20
2022-10-18T02:44:31.741Z,101180.80
2022-10-18T02:47:06.808Z,101173.20
2022-10-18T02:49:40.673Z,101178.40
2022-10-18T02:52:14.684Z,101181.60
2022-10-18T02:54:48.336Z,101178.60
2022-10-18T02:57:22.245Z,101171.20
2022-10-18T02:59:56.034Z,101186.00
2022-10-18T03:02:30.131Z,101187.80
2022-10-18T03:05:04.027Z,101183.40
2022-10-18T03:07:37.817Z,101191.20
2022-10-18T03:10:13.035Z,101197.60
2022-10-18T03:12:46.591Z,101188.60
2022-10-18T03:15:20.683Z,101193.40
2022-10-18T03:17:54.507Z,101199.00
2022-10-18T03:20:28.470Z,101198.40
2022-10-18T03:23:03.369Z,101203.00
2022-10-18T03:25:37.285Z,101201.40
2022-10-18T03:28:11.232Z,101199.80
2022-10-18T03:30:45.125Z,101203.80
2022-10-18T03:33:19.096Z,101204.80
2022-10-18T03:35:52.772Z,101207.00
2022-10-18T03:38:26.456Z,101205.80
2022-10-18T03:41:00.442Z,101216.20
2022-10-18T03:43:34.293Z,101218.20
2022-10-18T03:46:08.385Z,101215.80
2022-10-18T03:48:42.232Z,101220.80
2022-10-18T03:51:16.311Z,101219.20
2022-10-18T03:53:50.336Z,101222.60
2022-10-18T03:56:25.320Z,101225.00
2022-10-18T03:58:58.959Z,101222.40
2022-10-18T04:01:32.967Z,101228.00
2022-10-18T04:04:06.925Z,101227.60
2022-10-18T04:06:40.547Z,101229.80
2022-10-18T04:09:14.422Z,101225.40
2022-10-18T04:11:50.976Z,101225.40
2022-10-18T04:14:24.594Z,101231.60
2022-10-18T04:16:58.174Z,101226.60
2022-10-18T04:19:32.001Z,101233.00
2022-10-18T04:22:05.817Z,101228.40
2022-10-18T04:24:40.109Z,101237.00
2022-10-18T04:27:13.873Z,101240.20
2022-10-18T04:29:47.432Z,101239.80
2022-10-18T04:32:21.382Z,101235.80
2022-10-18T04:34:55.047Z,101235.20
2022-10-18T04:37:29.081Z,101233.60
2022-10-18T04:40:03.095Z,101227.20
2022-10-18T04:42:36.775Z,101227.60
2022-10-18T04:45:12.805Z,101228.00
2022-10-18T04:47:46.700Z,101228.80
2022-10-18T04:50:20.510Z,101231.40
2022-10-18T04:52:54.658Z,101223.20
2022-10-18T04:55:28.409Z,101226.40
2022-10-18T04:58:02.213Z,101226.60
2022-10-18T05:00:39.856Z,101228.40
2022-10-18T05:03:15.564Z,101221.60
2022-10-18T05:06:04.454Z,101224.00
2022-10-18T05:08:39.628Z,101228.60
2022-10-18T05:11:13.498Z,101230.00
2022-10-18T05:13:50.045Z,101227.00
2022-10-18T05:16:24.772Z,101226.80
2022-10-18T05:18:58.535Z,101221.60
2022-10-18T05:21:32.704Z,101222.80
2022-10-18T05:24:08.696Z,101224.60
2022-10-18T05:26:42.842Z,101224.60
2022-10-18T05:29:16.598Z,101225.80
2022-10-18T05:31:50.872Z,101225.40
2022-10-18T05:34:27.297Z,101223.00
2022-10-18T05:37:01.497Z,101216.60
2022-10-18T05:39:35.315Z,101210.20
2022-10-18T05:42:09.486Z,101211.60
2022-10-18T05:44:43.355Z,101206.20
2022-10-18T05:47:17.172Z,101216.40
2022-10-18T05:49:51.006Z,101218.00
2022-10-18T05:52:24.916Z,101212.80
2022-10-18T05:54:58.737Z,101215.80
2022-10-18T05:57:32.898Z,101215.00
2022-10-18T06:00:09.058Z,101223.60
2022-10-18T06:02:45.570Z,101217.80
2022-10-18T06:05:20.067Z,101216.40
2022-10-18T06:07:53.958Z,101218.40
2022-10-18T06:10:28.235Z,101224.00
2022-10-18T06:13:02.212Z,101219.40
2022-10-18T06:15:36.307Z,101225.20
2022-10-18T06:18:10.649Z,101228.20
2022-10-18T06:20:44.787Z,101220.60
2022-10-18T06:23:18.736Z,101219.80
2022-10-18T06:25:52.892Z,101223.00
2022-10-18T06:28:27.166Z,101230.40
2022-10-18T06:31:01.528Z,101226.20
2022-10-18T06:33:37.255Z,101225.40
2022-10-18T06:36:15.912Z,101233.00
2022-10-18T06:38:50.102Z,101227.20
2022-10-18T06:41:25.211Z,101220.00
2022-10-18T06:44:03.554Z,101219.60
2022-10-18T06:46:37.734Z,101215.00
2022-10-18T06:49:14.093Z,101221.20
2022-10-18T06:51:51.045Z,101222.60
2022-10-18T06:54:26.544Z,101226.00
2022-10-18T06:57:02.824Z,101215.60
2022-10-18T06:59:36.881Z,101218.40
2022-10-18T07:02:13.859Z,101213.60
2022-10-18T07:04:48.169Z,101216.20
2022-10-18T07:07:22.112Z,101216.40
2022-10-18T07:09:57.740Z,101218.60
2022-10-18T07:12:33.369Z,101218.40
2022-10-18T07:15:09.457Z,101218.80
2022-10-18T07:17:45.773Z,101222.00
2022-10-18T07:20:20.647Z,101220.60
2022-10-18T07:22:58.764Z,101214.00
2022-10-18T07:25:33.960Z,101220.20
2022-10-18T07:28:08.130Z,101225.40
2022-10-18T07:30:42.655Z,101226.40
2022-10-18T07:33:17.050Z,101219.00
2022-10-18T07:35:51.357Z,101233.00
2022-10-18T07:38:25.640Z,101228.20
2022-10-18T07:41:03.870Z,101228.60
2022-10-18T07:43:38.083Z,101228.00
2022-10-18T07:46:13.352Z,101231.20
2022-10-18T07:48:47.374Z,101224.20
2022-10-18T07:51:22.387Z,101225.80
2022-10-18T07:53:56.374Z,101225.20
2022-10-18T07:56:30.660Z,101222.80
2022-10-18T07:59:05.199Z,101217.40
2022-10-18T08:01:39.307Z,101212.20
2022-10-18T08:04:16.360Z,101210.80
2022-10-18T08:06:50.529Z,101206.40
2022-10-18T08:09:24.460Z,101204.80
2022-10-18T08:11:58.270Z,101197.60
2022-10-18T08:14:32.574Z,101200.40
2022-10-18T08:17:06.723Z,101197.80
2022-10-18T08:19:52.665Z,101193.00
2022-10-18T08:22:34.764Z,101182.40
2022-10-18T08:25:10.922Z,101176.80
2022-10-18T08:27:45.513Z,101172.80
2022-10-18T08:30:20.442Z,101167.60
2022-10-18T08:32:55.953Z,101157.00
2022-10-18T08:35:30.500Z,101155.20
2022-10-18T08:38:04.990Z,101149.40
2022-10-18T08:40:44.850Z,101147.00
2022-10-18T08:43:33.348Z,101141.20
2022-10-18T08:46:09.879Z,101138.80
2022-10-18T08:48:49.983Z,101130.00
2022-10-18T08:51:33.509Z,101128.00
2022-10-18T08:54:14.096Z,101120.20
2022-10-18T08:57:01.978Z,101125.20
2022-10-18T08:59:44.111Z,101121.60
2022-10-18T09:02:36.333Z,101117.00
2022-10-18T09:05:25.057Z,101109.00
2022-10-18T09:08:42.426Z,101109.60
2022-10-18T09:11:34.451Z,101100.60
2022-10-18T09:14:58.599Z,101103.40
2022-10-18T09:17:46.989Z,101103.60
2022-10-18T09:20:30.085Z,101107.40
2022-10-18T09:23:19.689Z,101099.60
2022-10-18T09:26:00.216Z,101094.60
2022-10-18T09:28:44.493Z,101087.00
2022-10-18T09:31:26.771Z,101080.40
2022-10-18T09:34:05.838Z,101068.60
2022-10-18T09:36:45.915Z,101059.80
2022-10-18T09:39:27.503Z,101057.40
2022-10-18T09:42:08.738Z,101052.00
2022-10-18T09:44:48.021Z,101049.60
2022-10-18T09:50:26.893Z,101053.40
2022-10-18T09:53:14.149Z,101049.00
2022-10-18T09:56:01.594Z,101036.20
2022-10-18T09:58:46.896Z,101034.80
2022-10-18T10:01:27.093Z,101034.80
2022-10-18T10:04:01.447Z,101033.60
2022-10-18T10:06:39.084Z,101032.80
2022-10-18T10:09:26.348Z,101025.20
2022-10-18T10:12:02.514Z,101019.00
2022-10-18T10:14:47.813Z,101013.20
2022-10-18T10:17:32.538Z,101008.60
2022-10-18T10:20:20.450Z,101001.80
2022-10-18T10:22:55.575Z,100992.80
2022-10-18T10:36:54.707Z,100979.60
2022-10-18T10:39:26.526Z,100978.00
2022-10-18T10:42:00.300Z,100971.40
2022-10-18T10:44:35.997Z,100970.60
2022-10-18T10:47:06.576Z,100974.80
2022-10-18T10:49:47.474Z,100983.60
2022-10-18T10:52:28.075Z,100982.40
2022-10-18T10:55:06.232Z,100978.80
2022-10-18T10:57:53.984Z,100974.80
2022-10-18T11:00:43.471Z,100974.40
2022-10-18T11:03:28.675Z,100981.80
2022-10-18T11:06:01.263Z,100976.00
2022-10-18T11:08:39.548Z,100973.20
2022-10-18T11:11:23.204Z,100962.40
2022-10-18T11:14:20.963Z,100948.40
2022-10-18T11:17:06.914Z,100951.00
2022-10-18T11:19:59.336Z,100962.20
2022-10-18T11:22:35.599Z,100961.60
2022-10-18T11:25:10.786Z,100960.80
2022-10-18T11:27:49.178Z,100956.00
2022-10-18T11:30:45.032Z,100945.60
2022-10-18T11:33:56.238Z,100942.00
2022-10-18T11:36:35.146Z,100944.00
2022-10-18T11:39:19.500Z,100944.00
2022-10-18T11:42:02.121Z,100933.40
2022-10-18T11:44:44.165Z,100925.40
2022-10-18T11:47:23.922Z,100910.00
2022-10-18T11:50:12.857Z,100908.40
2022-10-18T11:52:56.515Z,100899.00
2022-10-18T11:55:42.411Z,100888.80
2022-10-18T11:58:34.526Z,100881.20
2022-10-18T12:01:17.770Z,100881.80
2022-10-18T12:04:00.433Z,100884.00
2022-10-18T12:06:37.361Z,100880.20
2022-10-18T12:09:25.012Z,100875.20
2022-10-18T12:12:01.564Z,100870.20
2022-10-18T12:14:37.823Z,100866.00
2022-10-18T12:17:41.720Z,100862.20
2022-10-18T12:20:18.215Z,100856.20
2022-10-18T12:22:59.504Z,100846.00
2022-10-18T12:25:33.414Z,100845.00
2022-10-18T12:28:16.951Z,100840.80
2022-10-18T12:31:02.483Z,100829.80
2022-10-18T12:33:40.928Z,100827.80
2022-10-18T12:36:42.374Z,100822.60
2022-10-18T12:39:29.130Z,100813.80
2022-10-18T12:42:22.868Z,100812.80
2022-10-18T12:45:04.865Z,100821.60
2022-10-18T12:47:35.315Z,100822.80
2022-10-18T12:50:29.801Z,100824.60
2022-10-18T12:53:24.574Z,100816.60
2022-10-18T12:55:56.013Z,100809.80
2022-10-18T12:58:32.524Z,100810.60
2022-10-18T13:01:07.805Z,100809.60
2022-10-18T13:03:56.399Z,100802.60
2022-10-18T13:07:05.422Z,100800.20
2022-10-18T13:09:36.828Z,100797.00
2022-10-18T13:12:51.209Z,100783.60
2022-10-18T13:15:42.140Z,100778.20
2022-10-18T13:18:26.444Z,100777.20
2022-10-18T13:21:15.312Z,100783.00
2022-10-18T13:24:12.203Z,100777.80
2022-10-18T13:27:04.214Z,100770.00
2022-10-18T13:30:15.327Z,100772.40
2022-10-18T13:32:58.135Z,100773.20
2022-10-18T13:35:55.034Z,100765.40
2022-10-18T13:38:47.848Z,100773.00
2022-10-18T13:41:21.581Z,100774.00
2022-10-18T13:44:28.186Z,100778.40
2022-10-18T13:47:39.497Z,100768.80
2022-10-18T13:50:37.997Z,100770.40
2022-10-18T13:53:47.011Z,100774.00
2022-10-18T13:56:56.149Z,100779.40
2022-10-18T14:00:01.037Z,100786.60
2022-10-18T14:02:58.626Z,100795.00
2022-10-18T14:05:54.401Z,100812.00
2022-10-18T14:08:41.981Z,100835.60
2022-10-18T14:11:27.467Z,100840.40
2022-10-18T14:14:08.992Z,100848.00
2022-10-18T14:16:47.657Z,100846.80
2022-10-18T14:19:29.230Z,100857.80
2022-10-18T14:22:19.533Z,100869.40
2022-10-18T14:24:55.016Z,100869.00
2022-10-18T14:27:27.805Z,100868.00
2022-10-18T14:30:18.980Z,100871.00
2022-10-18T14:32:53.900Z,100880.60
2022-10-18T14:35:32.442Z,100892.60
2022-10-18T14:38:03.618Z,100902.40
2022-10-18T14:40:40.304Z,100907.80
2022-10-18T14:43:15.097Z,100921.80
2022-10-18T14:45:45.525Z,100932.60
2022-10-18T14:48:22.699Z,100934.20
2022-10-18T14:50:59.808Z,100937.20
2022-10-18T14:53:36.819Z,100941.40
2022-10-18T14:56:19.704Z,100959.40
2022-10-18T14:58:50.134Z,100962.20
2022-10-18T15:01:22.850Z,100959.00
2022-10-18T15:04:00.937Z,100968.60
2022-10-18T15:06:33.499Z,100961.20
2022-10-18T15:09:06.570Z,100966.20
2022-10-18T15:11:37.409Z,100960.20
2022-10-18T15:14:16.441Z,100959.20
2022-10-18T15:16:50.655Z,100958.40
2022-10-18T15:19:33.275Z,100969.00
2022-10-18T15:22:31.247Z,100969.40
2022-10-18T15:25:27.872Z,100968.60
2022-10-18T15:28:02.000Z,100971.80
2022-10-18T15:30:42.216Z,100971.40
2022-10-18T15:33:25.342Z,100980.40
2022-10-18T15:35:56.052Z,100977.40
2022-10-18T15:38:31.407Z,100974.60
2022-10-18T15:41:02.213Z,100987.60
2022-10-18T15:43:38.700Z,100991.80
2022-10-18T15:46:30.901Z,100999.60
2022-10-18T15:49:51.611Z,101002.20
2022-10-18T15:52:39.048Z,101018.60
2022-10-18T15:55:49.517Z,101028.80
2022-10-18T15:58:24.513Z,101035.40
2022-10-18T16:00:58.671Z,101029.20
2022-10-18T16:03:32.709Z,101019.20
2022-10-18T16:06:11.355Z,101016.20
2022-10-18T16:08:45.545Z,101008.40
2022-10-18T16:11:18.513Z,101007.20
2022-10-18T16:13:49.216Z,101007.00
2022-10-18T16:16:22.396Z,101003.80
2022-10-18T16:18:53.291Z,101004.60
2022-10-18T16:21:29.015Z,101017.00
2022-10-18T16:23:59.369Z,101018.20
2022-10-18T16:26:30.366Z,101035.80
2022-10-18T16:29:01.488Z,101037.60
2022-10-18T16:31:34.054Z,101046.40
2022-10-18T16:34:04.453Z,101049.60
2022-10-18T16:36:35.632Z,101054.60
2022-10-18T16:39:12.276Z,101059.40
2022-10-18T16:41:42.095Z,101064.20
2022-10-18T16:44:12.197Z,101071.40
2022-10-18T16:46:42.693Z,101069.80
2022-10-18T16:49:22.861Z,101073.40
2022-10-18T16:51:53.450Z,101080.00
2022-10-18T16:54:23.953Z,101081.80
2022-10-18T16:56:53.450Z,101086.60
2022-10-18T16:59:28.249Z,101081.00
2022-10-18T17:01:58.259Z,101081.60
2022-10-18T17:04:29.075Z,101082.80
2022-10-18T17:06:59.454Z,101082.40
2022-10-18T17:09:29.478Z,101079.40
2022-10-18T17:11:59.161Z,101085.00
2022-10-18T17:14:29.154Z,101097.40
2022-10-18T17:16:59.225Z,101099.40
2022-10-18T17:19:29.405Z,101105.20
2022-10-18T17:22:02.590Z,101099.40
2022-10-18T17:24:32.756Z,101103.60
2022-10-18T17:27:02.675Z,101103.60
2022-10-18T17:29:32.734Z,101110.60
2022-10-18T17:32:03.513Z,101120.20
2022-10-18T17:34:35.355Z,101124.60
2022-10-18T17:37:05.977Z,101129.00
2022-10-18T17:39:36.791Z,101125.60
2022-10-18T17:42:07.446Z,101131.00
2022-10-18T17:44:37.498Z,101133.40
2022-10-18T17:47:07.524Z,101141.20
2022-10-18T17:49:37.405Z,101148.20
2022-10-18T17:52:08.117Z,101156.00
2022-10-18T17:54:38.450Z,101153.20
2022-10-18T17:57:08.914Z,101148.00
2022-10-18T17:59:39.065Z,101147.40
2022-10-18T18:02:11.442Z,101145.40
2022-10-18T18:04:41.589Z,101141.20
2022-10-18T18:07:11.642Z,101149.00
2022-10-18T18:09:44.902Z,101148.40
2022-10-18T18:12:15.611Z,101151.40
2022-10-18T18:14:46.997Z,101149.60
2022-10-18T18:17:24.739Z,101147.00
2022-10-18T18:20:05.153Z,101145.80
2022-10-18T18:22:40.432Z,101145.80
2022-10-18T18:25:13.063Z,101144.80
2022-10-18T18:27:44.051Z,101146.00
2022-10-18T18:30:17.491Z,101148.80
2022-10-18T18:32:47.574Z,101145.20
2022-10-18T18:35:18.392Z,101145.80
2022-10-18T18:37:51.988Z,101144.40
2022-10-18T18:40:23.330Z,101149.60
2022-10-18T18:43:07.000Z,101160.20
2022-10-18T18:45:51.994Z,101158.80
2022-10-18T18:48:22.374Z,101156.20
2022-10-18T18:50:53.984Z,101158.60
2022-10-18T18:53:28.649Z,101154.00
2022-10-18T18:56:11.005Z,101156.20
2022-10-18T18:58:43.651Z,101154.20
2022-10-18T19:01:17.454Z,101153.40
2022-10-18T19:03:50.730Z,101149.40
2022-10-18T19:06:23.988Z,101144.60
2022-10-18T19:09:00.958Z,101144.60
2022-10-18T19:11:35.278Z,101150.40
2022-10-18T19:14:08.181Z,101155.00
2022-10-18T19:16:41.410Z,101152.40
2022-10-18T19:19:15.538Z,101149.40
2022-10-18T19:21:48.918Z,101144.60
2022-10-18T19:24:19.744Z,101146.40
2022-10-18T19:26:52.591Z,101148.60
2022-10-18T19:29:26.035Z,101142.40
2022-10-18T19:32:00.419Z,101141.60
2022-10-18T19:34:33.857Z,101144.60
2022-10-18T19:37:04.548Z,101147.00
2022-10-18T19:39:35.941Z,101147.80
2022-10-18T19:42:09.143Z,101141.40
2022-10-18T19:44:42.704Z,101143.60
2022-10-18T19:47:16.433Z,101143.40
2022-10-18T19:49:47.394Z,101137.80
2022-10-18T19:52:17.177Z,101139.00
2022-10-18T19:54:49.156Z,101136.60
2022-10-18T19:57:19.380Z,101134.00
2022-10-18T19:59:49.450Z,101139.60
2022-10-18T20:02:19.568Z,101142.20
2022-10-18T20:04:49.424Z,101135.40
2022-10-18T20:07:19.417Z,101134.80
2022-10-18T20:09:49.537Z,101141.20
2022-10-18T20:12:19.515Z,101140.00
2022-10-18T20:14:49.370Z,101139.60
2022-10-18T20:17:20.241Z,101139.40
2022-10-18T20:19:50.264Z,101147.20
2022-10-18T20:22:20.099Z,101145.80
2022-10-18T20:24:55.216Z,101139.00
2022-10-18T20:27:25.000Z,101136.80
2022-10-18T20:29:54.608Z,101139.40
2022-10-18T20:32:24.313Z,101138.40
2022-10-18T20:34:54.120Z,101149.40
2022-10-18T20:37:24.468Z,101143.40
2022-10-18T20:39:54.556Z,101143.00
2022-10-18T20:42:24.704Z,101143.40
2022-10-18T20:44:54.647Z,101147.00
2022-10-18T20:47:24.441Z,101151.20
2022-10-18T20:49:54.608Z,101148.20
2022-10-18T20:52:24.968Z,101147.60
2022-10-18T20:54:55.497Z,101147.60
2022-10-18T20:57:25.695Z,101144.80
2022-10-18T20:59:56.108Z,101141.40
2022-10-18T21:02:26.233Z,101144.40
2022-10-18T21:04:56.820Z,101146.20
2022-10-18T21:07:29.080Z,101146.60
2022-10-18T21:09:59.968Z,101145.00
2022-10-18T21:12:30.624Z,101148.20
2022-10-18T21:15:01.041Z,101142.80
2022-10-18T21:17:31.066Z,101143.40
2022-10-18T21:20:01.267Z,101148.40
2022-10-18T21:22:31.619Z,101143.60
2022-10-18T21:25:02.019Z,101142.80
2022-10-18T21:27:32.271Z,101145.80
2022-10-18T21:30:02.605Z,101143.40
2022-10-18T21:32:32.996Z,101138.80
2022-10-18T21:35:03.655Z,101141.20
2022-10-18T21:37:33.716Z,101136.40
2022-10-18T21:40:04.077Z,101137.60
2022-10-18T21:42:34.444Z,101134.80
2022-10-18T21:45:06.287Z,101134.80
2022-10-18T21:47:36.003Z,101134.80
2022-10-18T21:50:07.096Z,101138.40
2022-10-18T21:52:37.608Z,101142.20
2022-10-18T21:55:09.857Z,101136.00
2022-10-18T21:57:39.839Z,101135.60
2022-10-18T22:00:15.370Z,101134.00
2022-10-18T22:02:45.231Z,101133.80
2022-10-18T22:05:15.565Z,101130.20
2022-10-18T22:07:45.502Z,101125.40
2022-10-18T22:10:16.033Z,101129.20
2022-10-18T22:12:46.077Z,101128.40
2022-10-18T22:15:16.758Z,101124.00
2022-10-18T22:17:46.730Z,101119.00
2022-10-18T22:20:16.995Z,101121.80
2022-10-18T22:22:46.793Z,101125.00
2022-10-18T22:25:17.086Z,101122.60
2022-10-18T22:27:46.756Z,101121.00
2022-10-18T22:30:17.120Z,101119.80
2022-10-18T22:32:46.723Z,101117.40
2022-10-18T22:35:16.702Z,101115.00
2022-10-18T22:37:46.182Z,101113.00
2022-10-18T22:40:16.598Z,101120.20
2022-10-18T22:42:46.291Z,101122.20
2022-10-18T22:45:16.318Z,101121.60
2022-10-18T22:47:45.917Z,101121.60
2022-10-18T22:50:15.801Z,101118.20
2022-10-18T22:52:45.543Z,101113.40
2022-10-18T22:55:15.699Z,101108.60
2022-10-18T22:57:45.219Z,101121.40
2022-10-18T23:00:16.424Z,101120.20
2022-10-18T23:03:04.538Z,101116.40
2022-10-18T23:05:38.980Z,101123.20
2022-10-18T23:08:11.097Z,101118.80
2022-10-18T23:10:42.488Z,101113.20
2022-10-18T23:13:12.125Z,101110.20
2022-10-18T23:15:41.794Z,101109.40
2022-10-18T23:18:11.608Z,101109.60
2022-10-18T23:20:41.252Z,101111.20
2022-10-18T23:23:11.336Z,101106.60
2022-10-18T23:25:41.146Z,101106.20
2022-10-18T23:28:10.741Z,101100.40
2022-10-18T23:30:40.235Z,101100.80
2022-10-18T23:33:09.819Z,101102.00
2022-10-18T23:35:39.469Z,101095.80
2022-10-18T23:38:09.009Z,101101.00
2022-10-18T23:40:38.583Z,101099.00
2022-10-18T23:43:08.266Z,101093.40
2022-10-18T23:45:37.907Z,101099.20
2022-10-18T23:48:08.225Z,101102.00
2022-10-18T23:50:37.826Z,101106.00
2022-10-18T23:53:07.252Z,101110.20
2022-10-18T23:55:36.829Z,101108.00
2022-10-18T23:58:06.437Z,101105.00
